Time,TemperatureF,DewpointF,PressureIn,WindDirection,WindDirectionDegrees,WindSpeedMPH,WindSpeedGustMPH,Humidity,HourlyPrecipIn,Conditions,Clouds,dailyrainin,SoftwareType,DateUTC
2013-02-19 00:00:00,45.9,40.7,29.86,SSE,158,5.0,10.0,82,0.00,CLR,CLR,0.00,WeatherDisplay:10.37,2013-02-19 00:00:00,
2013-02-19 00:10:00,46.0,40.9,29.86,SSE,158,6.0,7.0,82,0.00,CLR,CLR,0.00,WeatherDisplay:10.37,2013-02-19 00:10:00,
2013-02-19 00:20:00,46.0,40.9,29.86,SSE,158,2.0,6.0,82,0.00,CLR,CLR,0.00,WeatherDisplay:10.37,2013-02-19 00:20:00,
2013-02-19 00:30:00,46.2,41.0,29.87,SSE,158,0.0,5.0,82,0.00,CLR,CLR,0.00,WeatherDisplay:10.37,2013-02-19 00:30:00,
2013-02-19 00:40:00,46.2,41.0,29.87,SSE,158,2.0,5.0,82,0.00,CLR,CLR,0.00,WeatherDisplay:10.37,2013-02-19 00:40:00,
2013-02-19 00:50:00,46.6,41.1,29.87,SSE,158,2.0,6.0,81,0.00,CLR,CLR,0.00,WeatherDisplay:10.37,2013-02-19 00:50:00,
2013-02-19 01:00:00,46.4,40.6,29.87,SSE,158,7.0,9.0,80,0.00,CLR,CLR,0.00,WeatherDisplay:10.37,2013-02-19 01:00:00,
2013-02-19 01:10:00,46.4,40.6,29.87,SSE,158,8.0,10.0,80,0.00,CLR,CLR,0.00,WeatherDisplay:10.37,2013-02-19 01:10:00,
2013-02-19 01:20:00,46.4,40.9,29.87,SSE,158,7.0,12.0,81,0.00,CLR,CLR,0.00,WeatherDisplay:10.37,2013-02-19 01:20:00,
2013-02-19 01:30:00,46.4,40.9,29.88,SSE,158,6.0,9.0,81,0.00,CLR,CLR,0.00,WeatherDisplay:10.37,2013-02-19 01:30:00,
2013-02-19 01:40:00,46.4,40.6,29.87,SSE,158,5.0,9.0,80,0.00,CLR,CLR,0.00,WeatherDisplay:10.37,2013-02-19 01:40:00,
2013-02-19 01:50:00,46.6,40.7,29.87,SSE,158,2.0,8.0,80,0.00,CLR,CLR,0.00,WeatherDisplay:10.37,2013-02-19 01:50:00,
2013-02-19 02:00:00,46.6,40.7,29.87,SSE,158,3.0,8.0,80,0.00,CLR,CLR,0.00,WeatherDisplay:10.37,2013-02-19 02:00:00,
2013-02-19 02:10:00,46.4,40.6,29.87,SSE,158,3.0,8.0,80,0.00,CLR,CLR,0.00,WeatherDisplay:10.37,2013-02-19 02:10:00,
2013-02-19 02:20:00,46.5,40.6,29.87,SSE,158,6.0,10.0,80,0.00,CLR,CLR,0.00,WeatherDisplay:10.37,2013-02-19 02:20:00,
2013-02-19 02:30:00,46.6,41.1,29.87,SSE,158,2.0,8.0,81,0.00,CLR,CLR,0.00,WeatherDisplay:10.37,2013-02-19 02:30:00,
2013-02-19 02:40:00,46.7,41.2,29.87,SSE,158,6.0,10.0,81,0.00,CLR,CLR,0.00,WeatherDisplay:10.37,2013-02-19 02:40:00,
2013-02-19 02:50:00,46.9,41.1,29.87,SSE,158,5.0,13.0,80,0.00,CLR,CLR,0.00,WeatherDisplay:10.37,2013-02-19 02:50:00,
2013-02-19 03:00:00,46.8,40.9,29.86,SSE,158,6.0,10.0,80,0.00,CLR,CLR,0.00,WeatherDisplay:10.37,2013-02-19 03:00:00,
2013-02-19 03:10:00,46.9,41.4,29.86,SSE,158,7.0,12.0,81,0.00,CLR,CLR,0.00,WeatherDisplay:10.37,2013-02-19 03:10:00,
2013-02-19 03:20:00,46.7,41.5,29.86,SSE,158,6.0,10.0,82,0.00,CLR,CLR,0.00,WeatherDisplay:10.37,2013-02-19 03:20:00,
2013-02-19 03:30:00,46.9,41.4,29.86,SSE,158,5.0,11.0,81,0.00,CLR,CLR,0.00,WeatherDisplay:10.37,2013-02-19 03:30:00,
2013-02-19 03:40:00,46.1,40.5,29.86,SSE,158,6.0,13.0,81,0.00,CLR,CLR,0.00,WeatherDisplay:10.37,2013-02-19 03:40:00,
2013-02-19 03:50:00,45.7,40.5,29.86,SSE,158,7.0,13.0,82,0.00,CLR,CLR,0.00,WeatherDisplay:10.37,2013-02-19 03:50:00,
2013-02-19 04:00:00,45.5,40.3,29.86,SSE,158,8.0,15.0,82,0.00,CLR,CLR,0.00,WeatherDisplay:10.37,2013-02-19 04:00:00,
2013-02-19 04:10:00,45.5,40.3,29.86,SSE,158,8.0,15.0,82,0.00,CLR,CLR,0.00,WeatherDisplay:10.37,2013-02-19 04:10:00,
2013-02-19 04:20:00,45.5,40.3,29.86,SSE,158,8.0,14.0,82,0.00,CLR,CLR,0.00,WeatherDisplay:10.37,2013-02-19 04:20:00,
2013-02-19 04:30:00,45.3,40.1,29.86,SSE,158,6.0,15.0,82,0.00,CLR,CLR,0.00,WeatherDisplay:10.37,2013-02-19 04:30:00,
2013-02-19 04:40:00,45.3,40.1,29.86,SSE,158,9.0,16.0,82,0.00,CLR,CLR,0.00,WeatherDisplay:10.37,2013-02-19 04:40:00,
2013-02-19 04:50:00,45.0,39.8,29.86,SSE,158,8.0,14.0,82,0.00,CLR,CLR,0.00,WeatherDisplay:10.37,2013-02-19 04:50:00,
2013-02-19 05:10:00,44.6,39.8,29.85,SSE,158,9.0,16.0,83,0.00,CLR,CLR,0.00,WeatherDisplay:10.37,2013-02-19 05:10:00,
2013-02-19 05:20:00,44.6,39.8,29.85,SSE,158,9.0,16.0,83,0.00,CLR,CLR,0.00,WeatherDisplay:10.37,2013-02-19 05:20:00,
2013-02-19 05:30:00,44.6,39.8,29.85,SSE,158,10.0,15.0,83,0.00,CLR,CLR,0.00,WeatherDisplay:10.37,2013-02-19 05:30:00,
2013-02-19 05:40:00,44.6,39.7,29.85,SSE,158,10.0,15.0,83,0.00,CLR,CLR,0.00,WeatherDisplay:10.37,2013-02-19 05:40:00,
2013-02-19 05:50:00,44.6,39.8,29.86,SSE,158,5.0,14.0,83,0.00,CLR,CLR,0.00,WeatherDisplay:10.37,2013-02-19 05:50:00,
2013-02-19 06:00:00,45.0,40.1,29.86,SSE,158,5.0,8.0,83,0.00,CLR,CLR,0.00,WeatherDisplay:10.37,2013-02-19 06:00:00,
2013-02-19 06:10:00,45.0,40.1,29.86,SSE,158,5.0,8.0,83,0.00,CLR,CLR,0.00,WeatherDisplay:10.37,2013-02-19 06:10:00,
2013-02-19 06:20:00,45.0,40.1,29.86,SSE,158,2.0,7.0,83,0.00,CLR,CLR,0.00,WeatherDisplay:10.37,2013-02-19 06:20:00,
2013-02-19 06:30:00,45.1,40.3,29.87,SSE,158,5.0,6.0,83,0.00,CLR,CLR,0.00,WeatherDisplay:10.37,2013-02-19 06:30:00,
2013-02-19 06:40:00,45.2,40.4,29.87,SSE,158,3.0,8.0,83,0.00,CLR,CLR,0.00,WeatherDisplay:10.37,2013-02-19 06:40:00,
2013-02-19 06:50:00,45.3,40.1,29.87,SSE,158,5.0,8.0,82,0.00,CLR,CLR,0.00,WeatherDisplay:10.37,2013-02-19 06:50:00,
2013-02-19 07:00:00,44.7,39.5,29.87,SSE,158,6.0,9.0,82,0.00,CLR,CLR,0.00,WeatherDisplay:10.37,2013-02-19 07:00:00,
2013-02-19 07:10:00,44.6,39.8,29.87,SSE,158,8.0,13.0,83,0.00,CLR,CLR,0.00,WeatherDisplay:10.37,2013-02-19 07:10:00,
2013-02-19 07:20:00,44.6,39.8,29.87,SSE,158,7.0,15.0,83,0.00,CLR,CLR,0.00,WeatherDisplay:10.37,2013-02-19 07:20:00,
2013-02-19 07:30:00,44.4,39.9,29.87,SSE,158,8.0,15.0,84,0.00,CLR,CLR,0.00,WeatherDisplay:10.37,2013-02-19 07:30:00,
2013-02-19 07:40:00,44.4,39.9,29.87,SSE,158,10.0,15.0,84,0.00,CLR,CLR,0.00,WeatherDisplay:10.37,2013-02-19 07:40:00,
2013-02-19 07:50:00,44.4,39.9,29.88,SSE,158,9.0,16.0,84,0.00,CLR,CLR,0.00,WeatherDisplay:10.37,2013-02-19 07:50:00,
2013-02-19 08:00:00,44.4,39.9,29.88,SSE,158,8.0,13.0,84,0.00,CLR,CLR,0.00,WeatherDisplay:10.37,2013-02-19 08:00:00,
2013-02-19 08:10:00,44.5,40.0,29.88,SSE,158,7.0,13.0,84,0.00,CLR,CLR,0.00,WeatherDisplay:10.37,2013-02-19 08:10:00,
2013-02-19 08:20:00,44.6,39.8,29.88,SSE,158,8.0,15.0,83,0.00,CLR,CLR,0.00,WeatherDisplay:10.37,2013-02-19 08:20:00,
2013-02-19 08:30:00,44.6,39.8,29.88,SSE,158,12.0,15.0,83,0.00,CLR,CLR,0.00,WeatherDisplay:10.37,2013-02-19 08:30:00,
2013-02-19 08:40:00,44.6,39.8,29.89,SSE,158,8.0,15.0,83,0.00,CLR,CLR,0.00,WeatherDisplay:10.37,2013-02-19 08:40:00,
2013-02-19 08:50:00,44.6,39.8,29.89,SSE,158,8.0,13.0,83,0.00,CLR,CLR,0.00,WeatherDisplay:10.37,2013-02-19 08:50:00,
2013-02-19 09:00:00,44.6,39.8,29.89,SSE,158,9.0,15.0,83,0.00,CLR,CLR,0.00,WeatherDisplay:10.37,2013-02-19 09:00:00,
2013-02-19 09:10:00,44.6,39.8,29.89,SSE,158,10.0,15.0,83,0.00,CLR,CLR,0.00,WeatherDisplay:10.37,2013-02-19 09:10:00,
2013-02-19 09:20:00,44.6,39.8,29.89,SSE,158,10.0,15.0,83,0.00,CLR,CLR,0.00,WeatherDisplay:10.37,2013-02-19 09:20:00,
2013-02-19 09:30:00,45.2,40.0,29.89,SSE,158,7.0,14.0,82,0.00,CLR,CLR,0.00,WeatherDisplay:10.37,2013-02-19 09:30:00,
2013-02-19 09:40:00,45.9,40.7,29.89,SSE,158,7.0,12.0,82,0.00,CLR,CLR,0.00,WeatherDisplay:10.37,2013-02-19 09:40:00,
2013-02-19 09:50:00,47.1,41.3,29.89,SSE,158,5.0,10.0,80,0.00,CLR,CLR,0.00,WeatherDisplay:10.37,2013-02-19 09:50:00,
2013-02-19 10:00:00,46.7,40.2,29.89,SSE,158,5.0,8.0,78,0.00,CLR,CLR,0.00,WeatherDisplay:10.37,2013-02-19 10:00:00,
2013-02-19 10:10:00,46.4,39.9,29.89,SSE,158,6.0,10.0,78,0.00,CLR,CLR,0.00,WeatherDisplay:10.37,2013-02-19 10:10:00,
2013-02-19 10:20:00,45.9,39.8,29.88,SSE,158,5.0,10.0,79,0.00,CLR,CLR,0.00,WeatherDisplay:10.37,2013-02-19 10:20:00,
2013-02-19 10:30:00,45.8,40.0,29.89,SSE,158,7.0,10.0,80,0.00,CLR,CLR,0.00,WeatherDisplay:10.37,2013-02-19 10:30:00,
2013-02-19 10:40:00,46.4,40.2,29.88,SSE,158,7.0,10.0,79,0.00,CLR,CLR,0.00,WeatherDisplay:10.37,2013-02-19 10:40:00,
2013-02-19 10:50:00,48.2,41.0,29.88,SSE,158,7.0,13.0,76,0.00,CLR,CLR,0.00,WeatherDisplay:10.37,2013-02-19 10:50:00,
2013-02-19 11:00:00,48.0,40.5,29.88,SSE,158,8.0,15.0,75,0.00,CLR,CLR,0.00,WeatherDisplay:10.37,2013-02-19 11:00:00,
2013-02-19 11:10:00,46.9,39.7,29.89,SSE,158,10.0,15.0,76,0.00,CLR,CLR,0.00,WeatherDisplay:10.37,2013-02-19 11:10:00,
2013-02-19 11:20:00,46.6,39.4,29.89,SSE,158,10.0,14.0,76,0.00,CLR,CLR,0.00,WeatherDisplay:10.37,2013-02-19 11:20:00,
2013-02-19 11:30:00,47.1,40.2,29.89,SSE,158,9.0,15.0,77,0.00,CLR,CLR,0.00,WeatherDisplay:10.37,2013-02-19 11:30:00,
2013-02-19 11:40:00,47.3,40.1,29.89,SSE,158,10.0,15.0,76,0.00,CLR,CLR,0.00,WeatherDisplay:10.37,2013-02-19 11:40:00,
2013-02-19 11:50:00,46.9,39.8,29.89,SSE,158,9.0,14.0,76,0.00,CLR,CLR,0.00,WeatherDisplay:10.37,2013-02-19 11:50:00,
2013-02-19 12:00:00,46.7,39.5,29.89,SSE,158,13.0,16.0,76,0.00,CLR,CLR,0.00,WeatherDisplay:10.37,2013-02-19 12:00:00,
2013-02-19 12:10:00,46.2,39.1,29.88,SSE,158,12.0,17.0,76,0.00,CLR,CLR,0.00,WeatherDisplay:10.37,2013-02-19 12:10:00,
2013-02-19 12:20:00,46.4,39.2,29.88,SSE,158,12.0,17.0,76,0.00,CLR,CLR,0.00,WeatherDisplay:10.37,2013-02-19 12:20:00,
2013-02-19 12:30:00,46.6,39.4,29.88,SSE,158,10.0,15.0,76,0.00,CLR,CLR,0.00,WeatherDisplay:10.37,2013-02-19 12:30:00,
2013-02-19 12:40:00,46.7,39.6,29.88,SSE,158,12.0,15.0,76,0.00,CLR,CLR,0.00,WeatherDisplay:10.37,2013-02-19 12:40:00,
2013-02-19 12:50:00,46.8,39.6,29.87,SSE,158,8.0,15.0,76,0.00,CLR,CLR,0.00,WeatherDisplay:10.37,2013-02-19 12:50:00,
2013-02-19 13:00:00,49.3,41.3,29.87,SSE,158,9.0,13.0,74,0.00,CLR,CLR,0.00,WeatherDisplay:10.37,2013-02-19 13:00:00,
2013-02-19 13:10:00,49.4,40.4,29.87,SSE,158,7.0,13.0,71,0.00,CLR,CLR,0.00,WeatherDisplay:10.37,2013-02-19 13:10:00,
2013-02-19 13:20:00,48.8,40.2,29.87,SSE,158,5.0,11.0,72,0.00,CLR,CLR,0.00,WeatherDisplay:10.37,2013-02-19 13:20:00,
2013-02-19 13:30:00,48.7,40.1,29.87,SSE,158,6.0,8.0,72,0.00,CLR,CLR,0.00,WeatherDisplay:10.37,2013-02-19 13:30:00,
2013-02-19 13:40:00,48.8,39.8,29.87,SSE,158,6.0,8.0,71,0.00,CLR,CLR,0.00,WeatherDisplay:10.37,2013-02-19 13:40:00,
2013-02-19 13:50:00,50.3,38.6,29.87,SSE,158,9.0,13.0,64,0.00,CLR,CLR,0.00,WeatherDisplay:10.37,2013-02-19 13:50:00,
2013-02-19 14:00:00,51.4,39.7,29.87,SSE,158,6.0,13.0,64,0.00,CLR,CLR,0.00,WeatherDisplay:10.37,2013-02-19 14:00:00,
2013-02-19 14:10:00,52.1,38.6,29.86,SSE,158,10.0,15.0,60,0.00,CLR,CLR,0.00,WeatherDisplay:10.37,2013-02-19 14:10:00,
2013-02-19 14:20:00,52.2,38.3,29.86,SSE,158,14.0,18.0,59,0.00,CLR,CLR,0.00,WeatherDisplay:10.37,2013-02-19 14:20:00,
2013-02-19 14:30:00,50.0,37.5,29.86,SSE,158,8.0,18.0,62,0.00,CLR,CLR,0.00,WeatherDisplay:10.37,2013-02-19 14:30:00,
2013-02-19 14:40:00,50.0,37.9,29.86,SSE,158,5.0,9.0,63,0.00,CLR,CLR,0.00,WeatherDisplay:10.37,2013-02-19 14:40:00,
2013-02-19 14:50:00,50.4,38.2,29.85,SSE,158,7.0,10.0,63,0.00,CLR,CLR,0.00,WeatherDisplay:10.37,2013-02-19 14:50:00,
2013-02-19 15:00:00,50.5,38.4,29.85,SSE,158,6.0,11.0,63,0.00,CLR,CLR,0.00,WeatherDisplay:10.37,2013-02-19 15:00:00,
2013-02-19 15:10:00,50.6,38.5,29.85,SSE,158,8.0,11.0,63,0.00,CLR,CLR,0.00,WeatherDisplay:10.37,2013-02-19 15:10:00,
2013-02-19 15:20:00,51.0,38.8,29.85,SSE,158,8.0,12.0,63,0.00,CLR,CLR,0.00,WeatherDisplay:10.37,2013-02-19 15:20:00,
2013-02-19 15:30:00,51.7,38.7,29.85,SSE,158,9.0,12.0,61,0.00,CLR,CLR,0.00,WeatherDisplay:10.37,2013-02-19 15:30:00,
2013-02-19 15:40:00,53.4,38.6,29.84,SSE,158,5.0,11.0,57,0.00,CLR,CLR,0.00,WeatherDisplay:10.37,2013-02-19 15:40:00,
2013-02-19 15:50:00,53.1,38.2,29.84,SSE,158,9.0,13.0,57,0.00,CLR,CLR,0.00,WeatherDisplay:10.37,2013-02-19 15:50:00,
2013-02-19 16:00:00,52.8,37.9,29.84,SSE,158,12.0,15.0,57,0.00,CLR,CLR,0.00,WeatherDisplay:10.37,2013-02-19 16:00:00,
2013-02-19 16:10:00,52.5,37.7,29.84,SSE,158,12.0,15.0,57,0.00,CLR,CLR,0.00,WeatherDisplay:10.37,2013-02-19 16:10:00,
2013-02-19 16:20:00,52.5,37.3,29.84,SSE,158,8.0,15.0,56,0.00,CLR,CLR,0.00,WeatherDisplay:10.37,2013-02-19 16:20:00,
2013-02-19 16:30:00,52.3,36.6,29.84,SSE,158,12.0,15.0,55,0.00,CLR,CLR,0.00,WeatherDisplay:10.37,2013-02-19 16:30:00,
2013-02-19 16:40:00,51.8,35.7,29.83,SSE,158,12.0,17.0,54,0.00,CLR,CLR,0.00,WeatherDisplay:10.37,2013-02-19 16:40:00,
2013-02-19 16:50:00,51.1,36.4,29.84,SSE,158,10.0,15.0,57,0.00,CLR,CLR,0.00,WeatherDisplay:10.37,2013-02-19 16:50:00,
2013-02-19 17:00:00,51.3,36.1,29.83,SSE,158,9.0,14.0,56,0.00,CLR,CLR,0.00,WeatherDisplay:10.37,2013-02-19 17:00:00,
2013-02-19 17:10:00,50.8,36.6,29.83,SSE,158,8.0,13.0,58,0.00,CLR,CLR,0.00,WeatherDisplay:10.37,2013-02-19 17:10:00,
2013-02-19 17:20:00,49.7,36.4,29.84,SSE,158,8.0,11.0,60,0.00,CLR,CLR,0.00,WeatherDisplay:10.37,2013-02-19 17:20:00,
2013-02-19 17:30:00,50.0,36.7,29.84,SSE,158,7.0,12.0,60,0.00,CLR,CLR,0.00,WeatherDisplay:10.37,2013-02-19 17:30:00,
2013-02-19 17:40:00,48.8,37.6,29.84,SSE,158,5.0,8.0,65,0.00,CLR,CLR,0.00,WeatherDisplay:10.37,2013-02-19 17:40:00,
2013-02-19 17:50:00,47.8,37.8,29.84,SSE,158,7.0,10.0,68,0.00,CLR,CLR,0.00,WeatherDisplay:10.37,2013-02-19 17:50:00,
2013-02-19 18:00:00,46.9,37.3,29.84,SSE,158,7.0,12.0,69,0.00,CLR,CLR,0.00,WeatherDisplay:10.37,2013-02-19 18:00:00,
2013-02-19 18:10:00,46.6,37.0,29.84,SSE,158,9.0,14.0,69,0.00,CLR,CLR,0.00,WeatherDisplay:10.37,2013-02-19 18:10:00,
2013-02-19 18:20:00,46.0,37.2,29.84,SSE,158,10.0,15.0,71,0.00,CLR,CLR,0.00,WeatherDisplay:10.37,2013-02-19 18:20:00,
2013-02-19 18:30:00,46.0,37.2,29.84,SSE,158,13.0,17.0,71,0.00,CLR,CLR,0.00,WeatherDisplay:10.37,2013-02-19 18:30:00,
2013-02-19 18:40:00,45.9,37.0,29.84,SSE,158,10.0,17.0,71,0.00,CLR,CLR,0.00,WeatherDisplay:10.37,2013-02-19 18:40:00,
2013-02-19 18:50:00,45.5,36.6,29.84,SSE,158,10.0,15.0,71,0.00,CLR,CLR,0.00,WeatherDisplay:10.37,2013-02-19 18:50:00,
2013-02-19 19:00:00,45.2,36.4,29.84,SSE,158,13.0,15.0,71,0.00,CLR,CLR,0.00,WeatherDisplay:10.37,2013-02-19 19:00:00,
2013-02-19 19:10:00,43.9,35.4,29.84,SSE,158,6.0,15.0,72,0.00,CLR,CLR,0.00,WeatherDisplay:10.37,2013-02-19 19:10:00,
2013-02-19 19:20:00,43.5,35.4,29.84,SSE,158,5.0,9.0,73,0.00,CLR,CLR,0.00,WeatherDisplay:10.37,2013-02-19 19:20:00,
2013-02-19 19:30:00,43.3,35.2,29.84,SSE,158,5.0,8.0,73,0.00,CLR,CLR,0.00,WeatherDisplay:10.37,2013-02-19 19:30:00,
2013-02-19 19:40:00,43.2,35.5,29.84,SSE,158,3.0,8.0,74,0.00,CLR,CLR,0.00,WeatherDisplay:10.37,2013-02-19 19:40:00,
2013-02-19 19:50:00,43.3,35.6,29.84,SSE,158,5.0,8.0,74,0.00,CLR,CLR,0.00,WeatherDisplay:10.37,2013-02-19 19:50:00,
2013-02-19 20:00:00,43.2,35.4,29.85,SSE,158,3.0,9.0,74,0.00,CLR,CLR,0.00,WeatherDisplay:10.37,2013-02-19 20:00:00,
2013-02-19 20:10:00,43.0,35.3,29.84,SSE,158,3.0,8.0,74,0.00,CLR,CLR,0.00,WeatherDisplay:10.37,2013-02-19 20:10:00,
2013-02-19 20:20:00,42.8,35.1,29.85,SSE,158,3.0,10.0,74,0.00,CLR,CLR,0.00,WeatherDisplay:10.37,2013-02-19 20:20:00,
2013-02-19 20:30:00,42.0,35.0,29.85,SSE,158,3.0,6.0,76,0.00,CLR,CLR,0.00,WeatherDisplay:10.37,2013-02-19 20:30:00,
2013-02-19 20:40:00,41.0,34.3,29.85,SSE,158,3.0,6.0,77,0.00,CLR,CLR,0.00,WeatherDisplay:10.37,2013-02-19 20:40:00,
2013-02-19 20:50:00,40.8,34.5,29.85,SSE,158,1.0,6.0,78,0.00,CLR,CLR,0.00,WeatherDisplay:10.37,2013-02-19 20:50:00,
2013-02-19 21:00:00,40.7,34.4,29.85,SSE,158,2.0,6.0,78,0.00,CLR,CLR,0.00,WeatherDisplay:10.37,2013-02-19 21:00:00,
2013-02-19 21:10:00,41.0,34.7,29.86,SSE,158,5.0,7.0,78,0.00,CLR,CLR,0.00,WeatherDisplay:10.37,2013-02-19 21:10:00,
2013-02-19 21:20:00,41.0,34.7,29.85,SSE,158,6.0,7.0,78,0.00,CLR,CLR,0.00,WeatherDisplay:10.37,2013-02-19 21:20:00,
2013-02-19 21:30:00,40.3,34.0,29.85,SSE,158,9.0,12.0,78,0.00,CLR,CLR,0.00,WeatherDisplay:10.37,2013-02-19 21:30:00,
2013-02-19 21:40:00,41.0,34.3,29.84,SSE,158,15.0,17.0,77,0.00,CLR,CLR,0.00,WeatherDisplay:10.37,2013-02-19 21:40:00,
2013-02-19 21:50:00,40.5,34.2,29.85,SSE,158,8.0,17.0,78,0.00,CLR,CLR,0.00,WeatherDisplay:10.37,2013-02-19 21:50:00,
2013-02-19 22:00:00,39.7,33.8,29.85,SSE,158,6.0,9.0,79,0.00,CLR,CLR,0.00,WeatherDisplay:10.37,2013-02-19 22:00:00,
2013-02-19 22:10:00,39.4,33.7,29.86,SSE,158,3.0,8.0,80,0.00,CLR,CLR,0.00,WeatherDisplay:10.37,2013-02-19 22:10:00,
2013-02-19 22:20:00,38.5,33.5,29.86,SSE,158,7.0,10.0,82,0.00,CLR,CLR,0.00,WeatherDisplay:10.37,2013-02-19 22:20:00,
2013-02-19 22:30:00,38.1,33.4,29.86,SSE,158,7.0,13.0,83,0.00,CLR,CLR,0.00,WeatherDisplay:10.37,2013-02-19 22:30:00,
2013-02-19 22:40:00,38.0,33.3,29.86,SSE,158,6.0,11.0,83,0.00,CLR,CLR,0.00,WeatherDisplay:10.37,2013-02-19 22:40:00,
2013-02-19 22:50:00,37.9,33.2,29.85,SSE,158,7.0,11.0,83,0.00,CLR,CLR,0.00,WeatherDisplay:10.37,2013-02-19 22:50:00,
2013-02-19 23:00:00,37.9,33.2,29.85,SSE,158,3.0,11.0,83,0.00,CLR,CLR,0.00,WeatherDisplay:10.37,2013-02-19 23:00:00,
2013-02-19 23:10:00,37.9,33.2,29.85,SSE,158,3.0,8.0,83,0.00,CLR,CLR,0.00,WeatherDisplay:10.37,2013-02-19 23:10:00,
2013-02-19 23:20:00,37.6,32.9,29.85,SSE,158,8.0,13.0,83,0.00,CLR,CLR,0.00,WeatherDisplay:10.37,2013-02-19 23:20:00,
2013-02-19 23:30:00,37.1,31.5,29.85,SSE,158,7.0,13.0,80,0.00,CLR,CLR,0.00,WeatherDisplay:10.37,2013-02-19 23:30:00,
2013-02-19 23:40:00,37.2,31.9,29.85,SSE,158,8.0,12.0,81,0.00,CLR,CLR,0.00,WeatherDisplay:10.37,2013-02-19 23:40:00,
2013-02-19 23:50:00,37.6,33.2,29.86,SSE,158,7.0,12.0,84,0.00,CLR,CLR,0.00,WeatherDisplay:10.37,2013-02-19 23:50:00,